sensor_id;sensor_type;location;lat;lon;timestamp;temperature;humidity
44435;DHT22;30138;20.964;105.830;2024-03-06T00:03:48;23.30;99.90
44435;DHT22;30138;20.964;105.830;2024-03-06T00:08:54;23.30;99.90
44435;DHT22;30138;20.964;105.830;2024-03-06T00:14:03;23.40;99.90
44435;DHT22;30138;20.964;105.830;2024-03-06T00:19:11;23.30;99.90
44435;DHT22;30138;20.964;105.830;2024-03-06T00:24:18;23.30;99.90
44435;DHT22;30138;20.964;105.830;2024-03-06T00:29:25;23.30;99.90
44435;DHT22;30138;20.964;105.830;2024-03-06T00:34:35;23.30;99.90
44435;DHT22;30138;20.964;105.830;2024-03-06T00:39:43;23.30;99.90
44435;DHT22;30138;20.964;105.830;2024-03-06T00:44:49;23.40;99.90
44435;DHT22;30138;20.964;105.830;2024-03-06T00:49:58;23.30;99.90
44435;DHT22;30138;20.964;105.830;2024-03-06T00:55:05;23.40;99.90
44435;DHT22;30138;20.964;105.830;2024-03-06T01:00:14;23.40;99.90
44435;DHT22;30138;20.964;105.830;2024-03-06T01:05:24;23.40;99.90
44435;DHT22;30138;20.964;105.830;2024-03-06T01:10:31;23.40;99.90
44435;DHT22;30138;20.964;105.830;2024-03-06T01:15:38;23.50;99.90
44435;DHT22;30138;20.964;105.830;2024-03-06T01:20:48;23.50;99.90
44435;DHT22;30138;20.964;105.830;2024-03-06T01:25:54;23.50;99.90
44435;DHT22;30138;20.964;105.830;2024-03-06T01:31:01;23.50;99.90
44435;DHT22;30138;20.964;105.830;2024-03-06T01:36:10;23.50;99.90
44435;DHT22;30138;20.964;105.830;2024-03-06T01:41:17;23.60;99.90
44435;DHT22;30138;20.964;105.830;2024-03-06T01:46:25;23.60;99.90
44435;DHT22;30138;20.964;105.830;2024-03-06T01:51:34;23.60;99.90
44435;DHT22;30138;20.964;105.830;2024-03-06T01:56:45;23.70;99.90
44435;DHT22;30138;20.964;105.830;2024-03-06T02:01:53;23.70;99.90
44435;DHT22;30138;20.964;105.830;2024-03-06T02:07:03;23.70;99.90
44435;DHT22;30138;20.964;105.830;2024-03-06T02:12:10;23.80;99.90
44435;DHT22;30138;20.964;105.830;2024-03-06T02:17:16;23.80;99.90
44435;DHT22;30138;20.964;105.830;2024-03-06T02:22:24;23.90;99.90
44435;DHT22;30138;20.964;105.830;2024-03-06T02:27:31;23.90;99.90
44435;DHT22;30138;20.964;105.830;2024-03-06T02:32:38;23.90;99.90
44435;DHT22;30138;20.964;105.830;2024-03-06T02:37:48;24.00;99.90
44435;DHT22;30138;20.964;105.830;2024-03-06T02:42:57;24.00;99.90
44435;DHT22;30138;20.964;105.830;2024-03-06T02:48:04;24.00;99.90
44435;DHT22;30138;20.964;105.830;2024-03-06T02:53:14;24.10;99.90
44435;DHT22;30138;20.964;105.830;2024-03-06T02:58:22;24.10;99.90
44435;DHT22;30138;20.964;105.830;2024-03-06T03:03:28;24.10;99.90
44435;DHT22;30138;20.964;105.830;2024-03-06T03:08:37;24.10;99.90
44435;DHT22;30138;20.964;105.830;2024-03-06T03:13:47;24.20;99.90
44435;DHT22;30138;20.964;105.830;2024-03-06T03:18:54;24.20;99.90
44435;DHT22;30138;20.964;105.830;2024-03-06T03:24:02;24.20;99.90
44435;DHT22;30138;20.964;105.830;2024-03-06T03:29:09;24.30;99.90
44435;DHT22;30138;20.964;105.830;2024-03-06T03:34:17;24.30;99.90
44435;DHT22;30138;20.964;105.830;2024-03-06T03:39:26;24.30;99.90
44435;DHT22;30138;20.964;105.830;2024-03-06T03:44:33;24.30;99.90
44435;DHT22;30138;20.964;105.830;2024-03-06T03:49:40;24.40;99.90
44435;DHT22;30138;20.964;105.830;2024-03-06T03:54:49;24.40;99.90
44435;DHT22;30138;20.964;105.830;2024-03-06T03:59:56;24.40;99.90
44435;DHT22;30138;20.964;105.830;2024-03-06T04:05:03;24.40;99.90
44435;DHT22;30138;20.964;105.830;2024-03-06T04:10:12;24.40;99.90
44435;DHT22;30138;20.964;105.830;2024-03-06T04:15:19;24.40;99.90
44435;DHT22;30138;20.964;105.830;2024-03-06T04:20:26;24.50;99.90
44435;DHT22;30138;20.964;105.830;2024-03-06T04:25:35;24.50;99.90
44435;DHT22;30138;20.964;105.830;2024-03-06T04:30:42;24.50;99.90
44435;DHT22;30138;20.964;105.830;2024-03-06T04:35:50;24.60;99.90
44435;DHT22;30138;20.964;105.830;2024-03-06T04:41:00;24.60;99.90
44435;DHT22;30138;20.964;105.830;2024-03-06T04:46:06;24.60;99.90
44435;DHT22;30138;20.964;105.830;2024-03-06T04:51:19;24.60;99.90
44435;DHT22;30138;20.964;105.830;2024-03-06T04:56:29;24.60;99.90
44435;DHT22;30138;20.964;105.830;2024-03-06T05:01:35;24.60;99.90
44435;DHT22;30138;20.964;105.830;2024-03-06T05:06:42;24.60;99.90
44435;DHT22;30138;20.964;105.830;2024-03-06T05:11:52;24.60;99.90
44435;DHT22;30138;20.964;105.830;2024-03-06T05:16:58;24.60;99.90
44435;DHT22;30138;20.964;105.830;2024-03-06T05:22:06;24.60;99.90
44435;DHT22;30138;20.964;105.830;2024-03-06T05:27:15;24.60;99.90
44435;DHT22;30138;20.964;105.830;2024-03-06T05:32:24;24.60;99.90
44435;DHT22;30138;20.964;105.830;2024-03-06T05:37:31;24.50;99.90
44435;DHT22;30138;20.964;105.830;2024-03-06T05:42:41;24.50;99.90
44435;DHT22;30138;20.964;105.830;2024-03-06T05:47:48;24.50;99.90
44435;DHT22;30138;20.964;105.830;2024-03-06T05:52:56;24.50;99.90
44435;DHT22;30138;20.964;105.830;2024-03-06T05:58:05;24.50;99.90
44435;DHT22;30138;20.964;105.830;2024-03-06T06:03:12;24.60;99.90
44435;DHT22;30138;20.964;105.830;2024-03-06T06:08:20;24.60;99.90
44435;DHT22;30138;20.964;105.830;2024-03-06T06:13:30;24.60;99.90
44435;DHT22;30138;20.964;105.830;2024-03-06T06:18:37;24.60;99.90
44435;DHT22;30138;20.964;105.830;2024-03-06T06:23:45;24.60;99.90
44435;DHT22;30138;20.964;105.830;2024-03-06T06:28:54;24.70;99.90
44435;DHT22;30138;20.964;105.830;2024-03-06T06:34:01;24.70;99.90
44435;DHT22;30138;20.964;105.830;2024-03-06T06:39:08;24.70;99.90
44435;DHT22;30138;20.964;105.830;2024-03-06T06:44:17;24.80;99.90
44435;DHT22;30138;20.964;105.830;2024-03-06T06:49:25;24.90;99.90
44435;DHT22;30138;20.964;105.830;2024-03-06T06:54:31;24.90;99.90
44435;DHT22;30138;20.964;105.830;2024-03-06T06:59:40;25.00;99.90
44435;DHT22;30138;20.964;105.830;2024-03-06T07:04:47;25.00;99.90
44435;DHT22;30138;20.964;105.830;2024-03-06T07:09:54;25.00;99.90
44435;DHT22;30138;20.964;105.830;2024-03-06T07:15:05;25.10;99.90
44435;DHT22;30138;20.964;105.830;2024-03-06T07:20:12;25.10;99.90
44435;DHT22;30138;20.964;105.830;2024-03-06T07:25:20;25.20;99.90
44435;DHT22;30138;20.964;105.830;2024-03-06T07:30:29;25.20;99.90
44435;DHT22;30138;20.964;105.830;2024-03-06T07:35:36;25.20;99.90
44435;DHT22;30138;20.964;105.830;2024-03-06T07:40:43;25.20;99.90
44435;DHT22;30138;20.964;105.830;2024-03-06T07:45:52;25.30;99.90
44435;DHT22;30138;20.964;105.830;2024-03-06T07:50:59;25.30;99.90
44435;DHT22;30138;20.964;105.830;2024-03-06T07:56:06;25.30;99.90
44435;DHT22;30138;20.964;105.830;2024-03-06T08:01:17;25.30;99.90
44435;DHT22;30138;20.964;105.830;2024-03-06T08:06:23;25.30;99.90
44435;DHT22;30138;20.964;105.830;2024-03-06T08:11:32;25.40;99.90
44435;DHT22;30138;20.964;105.830;2024-03-06T08:16:40;25.40;99.90
44435;DHT22;30138;20.964;105.830;2024-03-06T08:21:47;25.40;99.90
44435;DHT22;30138;20.964;105.830;2024-03-06T08:26:54;25.40;99.90
44435;DHT22;30138;20.964;105.830;2024-03-06T08:32:03;25.40;99.90
44435;DHT22;30138;20.964;105.830;2024-03-06T08:37:11;25.40;99.90
44435;DHT22;30138;20.964;105.830;2024-03-06T08:42:18;25.40;99.90
44435;DHT22;30138;20.964;105.830;2024-03-06T08:47:27;25.40;99.90
44435;DHT22;30138;20.964;105.830;2024-03-06T08:52:35;25.40;99.90
44435;DHT22;30138;20.964;105.830;2024-03-06T08:57:42;25.40;99.90
44435;DHT22;30138;20.964;105.830;2024-03-06T09:02:51;25.50;99.90
44435;DHT22;30138;20.964;105.830;2024-03-06T09:07:58;25.40;99.90
44435;DHT22;30138;20.964;105.830;2024-03-06T09:13:05;25.50;99.90
44435;DHT22;30138;20.964;105.830;2024-03-06T09:18:13;25.50;99.90
44435;DHT22;30138;20.964;105.830;2024-03-06T09:23:20;25.40;99.90
44435;DHT22;30138;20.964;105.830;2024-03-06T09:28:27;25.40;99.90
44435;DHT22;30138;20.964;105.830;2024-03-06T09:33:35;25.40;99.90
44435;DHT22;30138;20.964;105.830;2024-03-06T09:38:43;25.40;99.90
44435;DHT22;30138;20.964;105.830;2024-03-06T09:43:50;25.40;99.90
44435;DHT22;30138;20.964;105.830;2024-03-06T09:49:00;25.40;99.90
44435;DHT22;30138;20.964;105.830;2024-03-06T09:54:08;25.40;99.90
44435;DHT22;30138;20.964;105.830;2024-03-06T09:59:16;25.40;99.90
44435;DHT22;30138;20.964;105.830;2024-03-06T10:04:25;25.40;99.90
44435;DHT22;30138;20.964;105.830;2024-03-06T10:09:32;25.40;99.90
44435;DHT22;30138;20.964;105.830;2024-03-06T10:14:39;25.40;99.90
44435;DHT22;30138;20.964;105.830;2024-03-06T10:19:57;25.40;99.90
44435;DHT22;30138;20.964;105.830;2024-03-06T10:25:08;25.40;99.90
44435;DHT22;30138;20.964;105.830;2024-03-06T10:30:15;25.40;99.90
44435;DHT22;30138;20.964;105.830;2024-03-06T10:35:23;25.40;99.90
44435;DHT22;30138;20.964;105.830;2024-03-06T10:40:31;25.40;99.90
44435;DHT22;30138;20.964;105.830;2024-03-06T10:45:43;25.40;99.90
44435;DHT22;30138;20.964;105.830;2024-03-06T10:50:56;25.30;99.90
44435;DHT22;30138;20.964;105.830;2024-03-06T10:56:08;25.40;99.90
44435;DHT22;30138;20.964;105.830;2024-03-06T11:01:15;25.30;99.90
44435;DHT22;30138;20.964;105.830;2024-03-06T11:06:26;25.30;99.90
44435;DHT22;30138;20.964;105.830;2024-03-06T11:11:46;25.30;99.90
44435;DHT22;30138;20.964;105.830;2024-03-06T11:17:02;25.30;99.90
44435;DHT22;30138;20.964;105.830;2024-03-06T11:22:12;25.30;99.90
44435;DHT22;30138;20.964;105.830;2024-03-06T11:27:19;25.30;99.90
44435;DHT22;30138;20.964;105.830;2024-03-06T11:32:29;25.30;99.90
44435;DHT22;30138;20.964;105.830;2024-03-06T11:37:45;25.30;99.90
44435;DHT22;30138;20.964;105.830;2024-03-06T11:42:52;25.40;99.90
44435;DHT22;30138;20.964;105.830;2024-03-06T11:48:03;25.40;99.90
44435;DHT22;30138;20.964;105.830;2024-03-06T11:53:18;25.40;99.90
44435;DHT22;30138;20.964;105.830;2024-03-06T11:58:24;25.40;99.90
44435;DHT22;30138;20.964;105.830;2024-03-06T12:03:31;25.40;99.90
44435;DHT22;30138;20.964;105.830;2024-03-06T12:08:41;25.40;99.90
44435;DHT22;30138;20.964;105.830;2024-03-06T12:13:49;25.40;99.90
44435;DHT22;30138;20.964;105.830;2024-03-06T12:18:57;25.40;99.90
44435;DHT22;30138;20.964;105.830;2024-03-06T12:24:07;25.40;99.90
44435;DHT22;30138;20.964;105.830;2024-03-06T12:29:17;25.40;99.90
44435;DHT22;30138;20.964;105.830;2024-03-06T12:34:24;25.40;99.90
44435;DHT22;30138;20.964;105.830;2024-03-06T12:39:35;25.40;99.90
44435;DHT22;30138;20.964;105.830;2024-03-06T12:44:41;25.40;99.90
44435;DHT22;30138;20.964;105.830;2024-03-06T12:49:49;25.40;99.90
44435;DHT22;30138;20.964;105.830;2024-03-06T12:55:01;25.40;99.90
44435;DHT22;30138;20.964;105.830;2024-03-06T13:00:12;25.40;99.90
44435;DHT22;30138;20.964;105.830;2024-03-06T13:05:22;25.50;99.90
44435;DHT22;30138;20.964;105.830;2024-03-06T13:10:33;25.40;99.90
44435;DHT22;30138;20.964;105.830;2024-03-06T13:15:47;25.50;99.90
44435;DHT22;30138;20.964;105.830;2024-03-06T13:20:56;25.50;99.90
44435;DHT22;30138;20.964;105.830;2024-03-06T13:26:06;25.50;99.90
44435;DHT22;30138;20.964;105.830;2024-03-06T13:31:15;25.50;99.90
44435;DHT22;30138;20.964;105.830;2024-03-06T13:36:22;25.50;99.90
44435;DHT22;30138;20.964;105.830;2024-03-06T13:41:33;25.40;99.90
44435;DHT22;30138;20.964;105.830;2024-03-06T13:46:40;25.50;99.90
44435;DHT22;30138;20.964;105.830;2024-03-06T13:51:48;25.40;99.90
44435;DHT22;30138;20.964;105.830;2024-03-06T13:56:58;25.40;99.90
44435;DHT22;30138;20.964;105.830;2024-03-06T14:02:08;25.40;99.90
44435;DHT22;30138;20.964;105.830;2024-03-06T14:07:17;25.40;99.90
44435;DHT22;30138;20.964;105.830;2024-03-06T14:12:27;25.40;99.90
44435;DHT22;30138;20.964;105.830;2024-03-06T14:17:36;25.40;99.90
44435;DHT22;30138;20.964;105.830;2024-03-06T14:22:43;25.50;99.90
44435;DHT22;30138;20.964;105.830;2024-03-06T14:27:52;25.40;99.90
44435;DHT22;30138;20.964;105.830;2024-03-06T14:33:01;25.40;99.90
44435;DHT22;30138;20.964;105.830;2024-03-06T14:38:09;25.40;99.90
44435;DHT22;30138;20.964;105.830;2024-03-06T14:43:18;25.40;99.90
44435;DHT22;30138;20.964;105.830;2024-03-06T14:48:25;25.40;99.90
44435;DHT22;30138;20.964;105.830;2024-03-06T14:53:33;25.40;99.90
44435;DHT22;30138;20.964;105.830;2024-03-06T14:58:43;25.40;99.90
44435;DHT22;30138;20.964;105.830;2024-03-06T15:03:51;25.40;99.90
44435;DHT22;30138;20.964;105.830;2024-03-06T15:08:58;25.40;99.90
44435;DHT22;30138;20.964;105.830;2024-03-06T15:14:09;25.40;99.90
44435;DHT22;30138;20.964;105.830;2024-03-06T15:19:19;25.40;99.90
44435;DHT22;30138;20.964;105.830;2024-03-06T15:24:27;25.40;99.90
44435;DHT22;30138;20.964;105.830;2024-03-06T15:29:38;25.40;99.90
44435;DHT22;30138;20.964;105.830;2024-03-06T15:34:46;25.40;99.90
44435;DHT22;30138;20.964;105.830;2024-03-06T15:39:56;25.40;99.90
44435;DHT22;30138;20.964;105.830;2024-03-06T15:45:06;25.40;99.90
44435;DHT22;30138;20.964;105.830;2024-03-06T15:50:14;25.40;99.90
44435;DHT22;30138;20.964;105.830;2024-03-06T15:55:25;25.40;99.90
44435;DHT22;30138;20.964;105.830;2024-03-06T16:00:35;25.40;99.90
44435;DHT22;30138;20.964;105.830;2024-03-06T16:05:43;25.40;99.90
44435;DHT22;30138;20.964;105.830;2024-03-06T16:10:50;25.40;99.90
44435;DHT22;30138;20.964;105.830;2024-03-06T16:15:59;25.40;99.90
44435;DHT22;30138;20.964;105.830;2024-03-06T16:21:10;25.40;99.90
44435;DHT22;30138;20.964;105.830;2024-03-06T16:26:28;25.30;99.90
44435;DHT22;30138;20.964;105.830;2024-03-06T16:31:42;25.40;99.90
44435;DHT22;30138;20.964;105.830;2024-03-06T16:36:50;25.40;99.90
44435;DHT22;30138;20.964;105.830;2024-03-06T16:41:59;25.40;99.90
44435;DHT22;30138;20.964;105.830;2024-03-06T16:47:09;25.40;99.90
44435;DHT22;30138;20.964;105.830;2024-03-06T16:52:17;25.40;99.90
44435;DHT22;30138;20.964;105.830;2024-03-06T16:57:26;25.40;99.90
44435;DHT22;30138;20.964;105.830;2024-03-06T17:02:41;25.30;99.90
44435;DHT22;30138;20.964;105.830;2024-03-06T17:07:49;25.30;99.90
44435;DHT22;30138;20.964;105.830;2024-03-06T17:12:58;25.40;99.90
44435;DHT22;30138;20.964;105.830;2024-03-06T17:18:08;25.40;99.90
44435;DHT22;30138;20.964;105.830;2024-03-06T17:23:16;25.40;99.90
44435;DHT22;30138;20.964;105.830;2024-03-06T17:28:23;25.30;99.90
44435;DHT22;30138;20.964;105.830;2024-03-06T17:33:34;25.30;99.90
44435;DHT22;30138;20.964;105.830;2024-03-06T17:38:41;25.40;99.90
44435;DHT22;30138;20.964;105.830;2024-03-06T17:43:49;25.30;99.90
44435;DHT22;30138;20.964;105.830;2024-03-06T17:49:00;25.30;99.90
44435;DHT22;30138;20.964;105.830;2024-03-06T17:54:07;25.30;99.90
44435;DHT22;30138;20.964;105.830;2024-03-06T17:59:18;25.30;99.90
44435;DHT22;30138;20.964;105.830;2024-03-06T18:04:26;25.30;99.90
44435;DHT22;30138;20.964;105.830;2024-03-06T18:09:35;25.30;99.90
44435;DHT22;30138;20.964;105.830;2024-03-06T18:14:41;25.30;99.90
44435;DHT22;30138;20.964;105.830;2024-03-06T18:19:51;25.20;99.90
44435;DHT22;30138;20.964;105.830;2024-03-06T18:24:58;25.30;99.90
44435;DHT22;30138;20.964;105.830;2024-03-06T18:30:08;25.30;99.90
44435;DHT22;30138;20.964;105.830;2024-03-06T18:35:20;25.30;99.90
44435;DHT22;30138;20.964;105.830;2024-03-06T18:40:27;25.30;99.90
44435;DHT22;30138;20.964;105.830;2024-03-06T18:45:35;25.20;99.90
44435;DHT22;30138;20.964;105.830;2024-03-06T18:50:44;25.20;99.90
44435;DHT22;30138;20.964;105.830;2024-03-06T18:55:50;25.20;99.90
44435;DHT22;30138;20.964;105.830;2024-03-06T19:00:57;25.20;99.90
44435;DHT22;30138;20.964;105.830;2024-03-06T19:06:09;25.20;99.90
44435;DHT22;30138;20.964;105.830;2024-03-06T19:11:16;25.20;99.90
44435;DHT22;30138;20.964;105.830;2024-03-06T19:16:23;25.20;99.90
44435;DHT22;30138;20.964;105.830;2024-03-06T19:21:32;25.20;99.90
44435;DHT22;30138;20.964;105.830;2024-03-06T19:26:41;25.20;99.90
44435;DHT22;30138;20.964;105.830;2024-03-06T19:31:47;25.20;99.90
44435;DHT22;30138;20.964;105.830;2024-03-06T19:36:58;25.20;99.90
44435;DHT22;30138;20.964;105.830;2024-03-06T19:42:05;25.20;99.90
44435;DHT22;30138;20.964;105.830;2024-03-06T19:47:12;25.20;99.90
44435;DHT22;30138;20.964;105.830;2024-03-06T19:52:22;25.20;99.90
44435;DHT22;30138;20.964;105.830;2024-03-06T19:57:30;25.20;99.90
44435;DHT22;30138;20.964;105.830;2024-03-06T20:02:37;25.10;99.90
44435;DHT22;30138;20.964;105.830;2024-03-06T20:07:47;25.20;99.90
44435;DHT22;30138;20.964;105.830;2024-03-06T20:12:53;25.10;99.90
44435;DHT22;30138;20.964;105.830;2024-03-06T20:18:05;25.10;99.90
44435;DHT22;30138;20.964;105.830;2024-03-06T20:23:14;25.10;99.90
44435;DHT22;30138;20.964;105.830;2024-03-06T20:28:22;25.10;99.90
44435;DHT22;30138;20.964;105.830;2024-03-06T20:33:30;25.10;99.90
44435;DHT22;30138;20.964;105.830;2024-03-06T20:38:38;25.10;99.90
44435;DHT22;30138;20.964;105.830;2024-03-06T20:43:45;25.10;99.90
44435;DHT22;30138;20.964;105.830;2024-03-06T20:48:52;25.10;99.90
44435;DHT22;30138;20.964;105.830;2024-03-06T20:54:01;25.10;99.90
44435;DHT22;30138;20.964;105.830;2024-03-06T20:59:09;25.10;99.90
44435;DHT22;30138;20.964;105.830;2024-03-06T21:04:16;25.10;99.90
44435;DHT22;30138;20.964;105.830;2024-03-06T21:09:27;25.10;99.90
44435;DHT22;30138;20.964;105.830;2024-03-06T21:14:34;25.00;99.90
44435;DHT22;30138;20.964;105.830;2024-03-06T21:19:42;25.10;99.90
44435;DHT22;30138;20.964;105.830;2024-03-06T21:24:50;25.00;99.90
44435;DHT22;30138;20.964;105.830;2024-03-06T21:29:57;25.00;99.90
44435;DHT22;30138;20.964;105.830;2024-03-06T21:35:05;25.00;99.90
44435;DHT22;30138;20.964;105.830;2024-03-06T21:40:15;25.00;99.90
44435;DHT22;30138;20.964;105.830;2024-03-06T21:45:22;25.00;99.90
44435;DHT22;30138;20.964;105.830;2024-03-06T21:50:29;25.00;99.90
44435;DHT22;30138;20.964;105.830;2024-03-06T21:55:38;25.00;99.90
44435;DHT22;30138;20.964;105.830;2024-03-06T22:00:45;25.00;99.90
44435;DHT22;30138;20.964;105.830;2024-03-06T22:05:52;25.00;99.90
44435;DHT22;30138;20.964;105.830;2024-03-06T22:11:02;25.00;99.90
44435;DHT22;30138;20.964;105.830;2024-03-06T22:16:11;25.00;99.90
44435;DHT22;30138;20.964;105.830;2024-03-06T22:21:18;25.00;99.90
44435;DHT22;30138;20.964;105.830;2024-03-06T22:26:27;25.00;99.90
44435;DHT22;30138;20.964;105.830;2024-03-06T22:31:34;25.00;99.90
44435;DHT22;30138;20.964;105.830;2024-03-06T22:36:40;25.00;99.90
44435;DHT22;30138;20.964;105.830;2024-03-06T22:41:50;25.00;99.90
44435;DHT22;30138;20.964;105.830;2024-03-06T22:46:56;25.00;99.90
44435;DHT22;30138;20.964;105.830;2024-03-06T22:52:03;25.00;99.90
44435;DHT22;30138;20.964;105.830;2024-03-06T22:57:12;25.00;99.90
44435;DHT22;30138;20.964;105.830;2024-03-06T23:02:18;25.00;99.90
44435;DHT22;30138;20.964;105.830;2024-03-06T23:07:25;25.00;99.90
44435;DHT22;30138;20.964;105.830;2024-03-06T23:12:34;25.00;99.90
44435;DHT22;30138;20.964;105.830;2024-03-06T23:17:41;24.90;99.90
44435;DHT22;30138;20.964;105.830;2024-03-06T23:22:50;25.00;99.90
44435;DHT22;30138;20.964;105.830;2024-03-06T23:27:58;24.90;99.90
44435;DHT22;30138;20.964;105.830;2024-03-06T23:33:05;24.90;99.90
44435;DHT22;30138;20.964;105.830;2024-03-06T23:38:11;24.90;99.90
44435;DHT22;30138;20.964;105.830;2024-03-06T23:43:20;24.90;99.90
44435;DHT22;30138;20.964;105.830;2024-03-06T23:48:27;24.90;99.90
44435;DHT22;30138;20.964;105.830;2024-03-06T23:53:34;24.90;99.90
44435;DHT22;30138;20.964;105.830;2024-03-06T23:58:43;24.90;99.90
